Terminal Aerodrome Forecast
Issued by NWS

Current Version | Previous Version | Graphics & Text | Print | Product List | Glossary On
Versions: 1 2 3 4 5 6 7 8 9 10 11 12 13 14 15 16 17 18 19 20 21 22 23 24
000
FTUS41 KRLX 230901 AAA
TAFCKB
TAF AMD
KCKB 230901Z 2309/2406 28010G25KT 6SM -RA SCT035 OVC050
     FM231100 24011G18KT P6SM BKN050
     FM231600 24015G28KT P6SM BKN045
     FM232300 26014G28KT P6SM OVC027
     FM240400 25013G23KT P6SM OVC017=

USA.gov is the U.S. government's official web portal to all federal, state and local government web resources and services.